Arcola, Missouri
Current Conditions -  °F | °C
As of 10:52 PM on Saturday 22 Nov 2014 (Local Time) from KSGF Reporting Station
Clear Clear  
Wind Chill: 12°   Ceiling: Unl
Heat Index: 12°   Visibility: 10mi
Dew Point: 10°   Wind: 17mph
Humidity: 89%   Direction: 160°SSE
Pressure: 29.78"   Gusts: NA
Location:  37.55°N, 93.88°W
Report Text: KSGF 230452Z 16015KT 10SM CLR 12/10 A2978 RMK AO2 SLP081 T01170100
Loading
Personal Weather Stations






























Interactive Weather Map New forecast layout! Learn more

10-Day Weather Forecast

Advertisements
Track Severe Weather on mobile